sensor_id;sensor_type;location;lat;lon;timestamp;P1;durP1;ratioP1;P2;durP2;ratioP2
49826;SDS011;35715;51.570;6.036;2024-01-11T00:01:24;35.72;;;16.90;;
49826;SDS011;35715;51.570;6.036;2024-01-11T00:03:49;30.83;;;18.38;;
49826;SDS011;35715;51.570;6.036;2024-01-11T00:06:15;29.02;;;18.00;;
49826;SDS011;35715;51.570;6.036;2024-01-11T00:08:40;34.63;;;17.55;;
49826;SDS011;35715;51.570;6.036;2024-01-11T00:11:08;33.20;;;18.73;;
49826;SDS011;35715;51.570;6.036;2024-01-11T00:13:36;30.05;;;18.33;;
49826;SDS011;35715;51.570;6.036;2024-01-11T00:16:01;32.22;;;19.77;;
49826;SDS011;35715;51.570;6.036;2024-01-11T00:18:27;33.17;;;18.20;;
49826;SDS011;35715;51.570;6.036;2024-01-11T00:20:53;33.15;;;17.10;;
49826;SDS011;35715;51.570;6.036;2024-01-11T00:23:18;31.02;;;19.52;;
49826;SDS011;35715;51.570;6.036;2024-01-11T00:25:44;35.15;;;19.27;;
49826;SDS011;35715;51.570;6.036;2024-01-11T00:28:09;29.58;;;18.23;;
49826;SDS011;35715;51.570;6.036;2024-01-11T00:30:34;29.95;;;17.35;;
49826;SDS011;35715;51.570;6.036;2024-01-11T00:33:00;30.38;;;17.67;;
49826;SDS011;35715;51.570;6.036;2024-01-11T00:35:25;41.90;;;20.23;;
49826;SDS011;35715;51.570;6.036;2024-01-11T00:37:50;34.08;;;19.48;;
49826;SDS011;35715;51.570;6.036;2024-01-11T00:40:16;34.28;;;20.02;;
49826;SDS011;35715;51.570;6.036;2024-01-11T00:42:41;28.33;;;18.17;;
49826;SDS011;35715;51.570;6.036;2024-01-11T00:45:06;38.40;;;18.50;;
49826;SDS011;35715;51.570;6.036;2024-01-11T00:47:32;27.73;;;16.98;;
49826;SDS011;35715;51.570;6.036;2024-01-11T00:49:57;36.83;;;19.20;;
49826;SDS011;35715;51.570;6.036;2024-01-11T00:52:22;32.47;;;17.83;;
49826;SDS011;35715;51.570;6.036;2024-01-11T00:54:48;40.78;;;19.00;;
49826;SDS011;35715;51.570;6.036;2024-01-11T00:57:13;29.48;;;18.95;;
49826;SDS011;35715;51.570;6.036;2024-01-11T00:59:39;30.65;;;18.05;;
49826;SDS011;35715;51.570;6.036;2024-01-11T01:02:06;29.98;;;19.27;;
49826;SDS011;35715;51.570;6.036;2024-01-11T01:04:31;35.97;;;18.67;;
49826;SDS011;35715;51.570;6.036;2024-01-11T01:06:56;30.25;;;17.88;;
49826;SDS011;35715;51.570;6.036;2024-01-11T01:09:22;32.75;;;18.90;;
49826;SDS011;35715;51.570;6.036;2024-01-11T01:11:47;34.40;;;19.45;;
49826;SDS011;35715;51.570;6.036;2024-01-11T01:14:16;30.35;;;18.90;;
49826;SDS011;35715;51.570;6.036;2024-01-11T01:16:41;36.45;;;19.73;;
49826;SDS011;35715;51.570;6.036;2024-01-11T01:19:06;34.33;;;21.33;;
49826;SDS011;35715;51.570;6.036;2024-01-11T01:21:32;37.10;;;20.23;;
49826;SDS011;35715;51.570;6.036;2024-01-11T01:23:57;34.08;;;18.88;;
49826;SDS011;35715;51.570;6.036;2024-01-11T01:26:22;35.80;;;20.95;;
49826;SDS011;35715;51.570;6.036;2024-01-11T01:28:48;32.47;;;19.35;;
49826;SDS011;35715;51.570;6.036;2024-01-11T01:31:13;33.72;;;20.05;;
49826;SDS011;35715;51.570;6.036;2024-01-11T01:33:39;31.33;;;18.15;;
49826;SDS011;35715;51.570;6.036;2024-01-11T01:36:09;33.70;;;18.92;;
49826;SDS011;35715;51.570;6.036;2024-01-11T01:38:35;33.47;;;18.77;;
49826;SDS011;35715;51.570;6.036;2024-01-11T01:41:00;31.83;;;19.17;;
49826;SDS011;35715;51.570;6.036;2024-01-11T01:43:25;35.40;;;20.33;;
49826;SDS011;35715;51.570;6.036;2024-01-11T01:45:51;37.58;;;20.85;;
49826;SDS011;35715;51.570;6.036;2024-01-11T01:48:16;33.88;;;18.50;;
49826;SDS011;35715;51.570;6.036;2024-01-11T01:50:46;29.55;;;19.42;;
49826;SDS011;35715;51.570;6.036;2024-01-11T01:53:17;40.90;;;21.08;;
49826;SDS011;35715;51.570;6.036;2024-01-11T01:55:44;41.53;;;21.02;;
49826;SDS011;35715;51.570;6.036;2024-01-11T01:58:10;36.88;;;20.60;;
49826;SDS011;35715;51.570;6.036;2024-01-11T02:00:35;33.72;;;19.00;;
49826;SDS011;35715;51.570;6.036;2024-01-11T02:03:01;32.97;;;21.23;;
49826;SDS011;35715;51.570;6.036;2024-01-11T02:05:27;34.75;;;21.95;;
49826;SDS011;35715;51.570;6.036;2024-01-11T02:07:52;36.30;;;20.45;;
49826;SDS011;35715;51.570;6.036;2024-01-11T02:10:18;32.17;;;19.52;;
49826;SDS011;35715;51.570;6.036;2024-01-11T02:12:44;39.15;;;22.50;;
49826;SDS011;35715;51.570;6.036;2024-01-11T02:15:12;33.25;;;20.92;;
49826;SDS011;35715;51.570;6.036;2024-01-11T02:17:39;39.10;;;21.48;;
49826;SDS011;35715;51.570;6.036;2024-01-11T02:20:05;33.63;;;19.00;;
49826;SDS011;35715;51.570;6.036;2024-01-11T02:22:35;34.55;;;20.88;;
49826;SDS011;35715;51.570;6.036;2024-01-11T02:25:05;34.35;;;20.15;;
49826;SDS011;35715;51.570;6.036;2024-01-11T02:27:31;32.03;;;21.02;;
49826;SDS011;35715;51.570;6.036;2024-01-11T02:29:56;30.42;;;18.65;;
49826;SDS011;35715;51.570;6.036;2024-01-11T02:32:21;36.00;;;20.35;;
49826;SDS011;35715;51.570;6.036;2024-01-11T02:34:47;29.45;;;17.73;;
49826;SDS011;35715;51.570;6.036;2024-01-11T02:37:13;38.90;;;22.90;;
49826;SDS011;35715;51.570;6.036;2024-01-11T02:39:39;38.55;;;20.75;;
49826;SDS011;35715;51.570;6.036;2024-01-11T02:42:04;35.03;;;20.98;;
49826;SDS011;35715;51.570;6.036;2024-01-11T02:44:29;34.05;;;20.55;;
49826;SDS011;35715;51.570;6.036;2024-01-11T02:46:56;28.35;;;19.77;;
49826;SDS011;35715;51.570;6.036;2024-01-11T02:49:21;36.83;;;21.17;;
49826;SDS011;35715;51.570;6.036;2024-01-11T02:54:32;32.03;;;19.67;;
49826;SDS011;35715;51.570;6.036;2024-01-11T02:56:58;33.08;;;19.55;;
49826;SDS011;35715;51.570;6.036;2024-01-11T02:59:25;35.08;;;20.80;;
49826;SDS011;35715;51.570;6.036;2024-01-11T03:01:53;32.03;;;19.98;;
49826;SDS011;35715;51.570;6.036;2024-01-11T03:04:18;31.35;;;17.95;;
49826;SDS011;35715;51.570;6.036;2024-01-11T03:06:44;34.70;;;19.88;;
49826;SDS011;35715;51.570;6.036;2024-01-11T03:09:11;29.38;;;15.43;;
49826;SDS011;35715;51.570;6.036;2024-01-11T03:11:37;34.65;;;20.30;;
49826;SDS011;35715;51.570;6.036;2024-01-11T03:14:02;35.72;;;20.55;;
49826;SDS011;35715;51.570;6.036;2024-01-11T03:16:28;34.65;;;19.15;;
49826;SDS011;35715;51.570;6.036;2024-01-11T03:18:53;32.72;;;19.77;;
49826;SDS011;35715;51.570;6.036;2024-01-11T03:21:22;32.88;;;18.33;;
49826;SDS011;35715;51.570;6.036;2024-01-11T03:23:47;31.88;;;20.15;;
49826;SDS011;35715;51.570;6.036;2024-01-11T03:26:13;33.15;;;19.70;;
49826;SDS011;35715;51.570;6.036;2024-01-11T03:28:40;30.67;;;19.38;;
49826;SDS011;35715;51.570;6.036;2024-01-11T03:31:05;32.70;;;20.58;;
49826;SDS011;35715;51.570;6.036;2024-01-11T03:33:30;34.85;;;19.20;;
49826;SDS011;35715;51.570;6.036;2024-01-11T03:35:55;32.28;;;18.17;;
49826;SDS011;35715;51.570;6.036;2024-01-11T03:38:21;33.58;;;20.00;;
49826;SDS011;35715;51.570;6.036;2024-01-11T03:40:46;34.35;;;19.23;;
49826;SDS011;35715;51.570;6.036;2024-01-11T03:43:12;33.50;;;17.88;;
49826;SDS011;35715;51.570;6.036;2024-01-11T03:45:38;33.70;;;18.27;;
49826;SDS011;35715;51.570;6.036;2024-01-11T03:48:06;35.53;;;20.52;;
49826;SDS011;35715;51.570;6.036;2024-01-11T03:50:31;30.10;;;18.55;;
49826;SDS011;35715;51.570;6.036;2024-01-11T03:52:57;37.70;;;22.65;;
49826;SDS011;35715;51.570;6.036;2024-01-11T03:55:22;32.47;;;18.23;;
49826;SDS011;35715;51.570;6.036;2024-01-11T03:57:47;31.70;;;18.35;;
49826;SDS011;35715;51.570;6.036;2024-01-11T04:00:13;33.25;;;18.50;;
49826;SDS011;35715;51.570;6.036;2024-01-11T04:02:38;37.40;;;20.50;;
49826;SDS011;35715;51.570;6.036;2024-01-11T04:05:06;30.55;;;18.13;;
49826;SDS011;35715;51.570;6.036;2024-01-11T04:07:32;30.00;;;16.90;;
49826;SDS011;35715;51.570;6.036;2024-01-11T04:09:57;27.70;;;17.52;;
49826;SDS011;35715;51.570;6.036;2024-01-11T04:12:23;34.97;;;20.30;;
49826;SDS011;35715;51.570;6.036;2024-01-11T04:14:51;36.70;;;18.10;;
49826;SDS011;35715;51.570;6.036;2024-01-11T04:17:16;29.88;;;18.27;;
49826;SDS011;35715;51.570;6.036;2024-01-11T04:19:41;32.67;;;16.52;;
49826;SDS011;35715;51.570;6.036;2024-01-11T04:22:13;31.10;;;17.88;;
49826;SDS011;35715;51.570;6.036;2024-01-11T04:24:38;30.08;;;17.65;;
49826;SDS011;35715;51.570;6.036;2024-01-11T04:27:03;29.85;;;16.52;;
49826;SDS011;35715;51.570;6.036;2024-01-11T04:29:31;30.33;;;17.10;;
49826;SDS011;35715;51.570;6.036;2024-01-11T04:31:57;29.63;;;16.95;;
49826;SDS011;35715;51.570;6.036;2024-01-11T04:34:23;30.88;;;18.55;;
49826;SDS011;35715;51.570;6.036;2024-01-11T04:36:48;31.77;;;17.63;;
49826;SDS011;35715;51.570;6.036;2024-01-11T04:39:14;31.80;;;17.23;;
49826;SDS011;35715;51.570;6.036;2024-01-11T04:41:42;34.67;;;19.65;;
49826;SDS011;35715;51.570;6.036;2024-01-11T04:44:07;29.25;;;19.13;;
49826;SDS011;35715;51.570;6.036;2024-01-11T04:46:34;26.17;;;17.85;;
49826;SDS011;35715;51.570;6.036;2024-01-11T04:48:59;32.42;;;16.65;;
49826;SDS011;35715;51.570;6.036;2024-01-11T04:51:25;28.52;;;17.60;;
49826;SDS011;35715;51.570;6.036;2024-01-11T04:53:50;28.33;;;15.60;;
49826;SDS011;35715;51.570;6.036;2024-01-11T04:56:18;29.38;;;17.17;;
49826;SDS011;35715;51.570;6.036;2024-01-11T04:58:44;32.55;;;18.23;;
49826;SDS011;35715;51.570;6.036;2024-01-11T05:01:13;29.27;;;17.13;;
49826;SDS011;35715;51.570;6.036;2024-01-11T05:03:55;30.92;;;16.70;;
49826;SDS011;35715;51.570;6.036;2024-01-11T05:06:27;32.22;;;18.17;;
49826;SDS011;35715;51.570;6.036;2024-01-11T05:08:52;35.03;;;17.08;;
49826;SDS011;35715;51.570;6.036;2024-01-11T05:11:21;31.38;;;13.77;;
49826;SDS011;35715;51.570;6.036;2024-01-11T05:13:52;28.00;;;14.50;;
49826;SDS011;35715;51.570;6.036;2024-01-11T05:16:21;26.27;;;17.80;;
49826;SDS011;35715;51.570;6.036;2024-01-11T05:18:47;25.63;;;14.68;;
49826;SDS011;35715;51.570;6.036;2024-01-11T05:21:13;25.58;;;14.95;;
49826;SDS011;35715;51.570;6.036;2024-01-11T05:23:39;30.50;;;18.02;;
49826;SDS011;35715;51.570;6.036;2024-01-11T05:26:06;30.00;;;16.98;;
49826;SDS011;35715;51.570;6.036;2024-01-11T05:28:31;32.72;;;16.98;;
49826;SDS011;35715;51.570;6.036;2024-01-11T05:31:00;27.02;;;17.05;;
49826;SDS011;35715;51.570;6.036;2024-01-11T05:33:25;26.83;;;17.15;;
49826;SDS011;35715;51.570;6.036;2024-01-11T05:35:51;28.10;;;17.00;;
49826;SDS011;35715;51.570;6.036;2024-01-11T05:38:18;25.30;;;15.40;;
49826;SDS011;35715;51.570;6.036;2024-01-11T05:40:44;22.30;;;14.52;;
49826;SDS011;35715;51.570;6.036;2024-01-11T05:43:12;29.70;;;18.00;;
49826;SDS011;35715;51.570;6.036;2024-01-11T05:45:37;33.28;;;20.38;;
49826;SDS011;35715;51.570;6.036;2024-01-11T05:48:03;35.58;;;19.77;;
49826;SDS011;35715;51.570;6.036;2024-01-11T05:50:30;27.60;;;17.63;;
49826;SDS011;35715;51.570;6.036;2024-01-11T05:52:56;22.75;;;13.80;;
49826;SDS011;35715;51.570;6.036;2024-01-11T05:55:21;24.63;;;13.90;;
49826;SDS011;35715;51.570;6.036;2024-01-11T05:57:47;24.80;;;15.10;;
49826;SDS011;35715;51.570;6.036;2024-01-11T06:00:24;24.15;;;14.88;;
49826;SDS011;35715;51.570;6.036;2024-01-11T06:02:50;28.52;;;16.20;;
49826;SDS011;35715;51.570;6.036;2024-01-11T06:05:15;27.45;;;15.48;;
49826;SDS011;35715;51.570;6.036;2024-01-11T06:07:40;29.17;;;16.40;;
49826;SDS011;35715;51.570;6.036;2024-01-11T06:10:08;26.60;;;15.52;;
49826;SDS011;35715;51.570;6.036;2024-01-11T06:12:34;28.85;;;16.63;;
49826;SDS011;35715;51.570;6.036;2024-01-11T06:15:00;24.52;;;14.57;;
49826;SDS011;35715;51.570;6.036;2024-01-11T06:17:26;22.00;;;13.90;;
49826;SDS011;35715;51.570;6.036;2024-01-11T06:19:52;23.83;;;14.60;;
49826;SDS011;35715;51.570;6.036;2024-01-11T06:22:17;25.00;;;15.55;;
49826;SDS011;35715;51.570;6.036;2024-01-11T06:24:45;23.42;;;14.63;;
49826;SDS011;35715;51.570;6.036;2024-01-11T06:27:11;28.35;;;14.15;;
49826;SDS011;35715;51.570;6.036;2024-01-11T06:29:36;28.30;;;15.23;;
49826;SDS011;35715;51.570;6.036;2024-01-11T06:32:02;34.17;;;17.77;;
49826;SDS011;35715;51.570;6.036;2024-01-11T06:34:27;22.42;;;13.68;;
49826;SDS011;35715;51.570;6.036;2024-01-11T06:36:53;25.80;;;15.02;;
49826;SDS011;35715;51.570;6.036;2024-01-11T06:39:19;24.42;;;13.68;;
49826;SDS011;35715;51.570;6.036;2024-01-11T06:41:44;31.70;;;15.70;;
49826;SDS011;35715;51.570;6.036;2024-01-11T06:44:10;26.23;;;15.50;;
49826;SDS011;35715;51.570;6.036;2024-01-11T06:46:35;18.92;;;13.13;;
49826;SDS011;35715;51.570;6.036;2024-01-11T06:49:01;24.40;;;14.90;;
49826;SDS011;35715;51.570;6.036;2024-01-11T06:51:27;28.50;;;14.82;;
49826;SDS011;35715;51.570;6.036;2024-01-11T06:53:52;23.50;;;15.48;;
49826;SDS011;35715;51.570;6.036;2024-01-11T06:56:20;28.60;;;16.33;;
49826;SDS011;35715;51.570;6.036;2024-01-11T06:58:49;24.60;;;16.55;;
49826;SDS011;35715;51.570;6.036;2024-01-11T07:01:15;28.30;;;15.90;;
49826;SDS011;35715;51.570;6.036;2024-01-11T07:03:40;25.60;;;14.95;;
49826;SDS011;35715;51.570;6.036;2024-01-11T07:06:05;21.70;;;14.27;;
49826;SDS011;35715;51.570;6.036;2024-01-11T07:08:32;24.27;;;13.75;;
49826;SDS011;35715;51.570;6.036;2024-01-11T07:11:00;28.00;;;15.60;;
49826;SDS011;35715;51.570;6.036;2024-01-11T07:13:27;23.13;;;13.90;;
49826;SDS011;35715;51.570;6.036;2024-01-11T07:15:53;26.08;;;14.80;;
49826;SDS011;35715;51.570;6.036;2024-01-11T07:18:20;25.42;;;13.02;;
49826;SDS011;35715;51.570;6.036;2024-01-11T07:20:46;24.83;;;15.05;;
49826;SDS011;35715;51.570;6.036;2024-01-11T07:23:12;24.85;;;13.98;;
49826;SDS011;35715;51.570;6.036;2024-01-11T07:25:38;21.38;;;12.77;;
49826;SDS011;35715;51.570;6.036;2024-01-11T07:28:04;30.88;;;15.45;;
49826;SDS011;35715;51.570;6.036;2024-01-11T07:30:30;26.10;;;15.15;;
49826;SDS011;35715;51.570;6.036;2024-01-11T07:32:55;43.88;;;15.88;;
49826;SDS011;35715;51.570;6.036;2024-01-11T07:35:23;22.80;;;14.90;;
49826;SDS011;35715;51.570;6.036;2024-01-11T07:37:48;24.38;;;13.80;;
49826;SDS011;35715;51.570;6.036;2024-01-11T07:40:15;26.63;;;15.38;;
49826;SDS011;35715;51.570;6.036;2024-01-11T07:42:41;25.33;;;14.70;;
49826;SDS011;35715;51.570;6.036;2024-01-11T07:45:08;25.33;;;13.82;;
49826;SDS011;35715;51.570;6.036;2024-01-11T07:47:38;26.17;;;16.98;;
49826;SDS011;35715;51.570;6.036;2024-01-11T07:50:04;29.98;;;17.38;;
49826;SDS011;35715;51.570;6.036;2024-01-11T07:52:37;27.25;;;14.68;;
49826;SDS011;35715;51.570;6.036;2024-01-11T07:55:03;22.23;;;14.82;;
49826;SDS011;35715;51.570;6.036;2024-01-11T07:57:35;30.15;;;18.25;;
49826;SDS011;35715;51.570;6.036;2024-01-11T08:00:02;26.58;;;14.70;;
49826;SDS011;35715;51.570;6.036;2024-01-11T08:02:31;27.65;;;15.25;;
49826;SDS011;35715;51.570;6.036;2024-01-11T08:04:57;28.70;;;16.52;;
49826;SDS011;35715;51.570;6.036;2024-01-11T08:07:24;22.75;;;15.48;;
49826;SDS011;35715;51.570;6.036;2024-01-11T08:09:50;27.55;;;16.15;;
49826;SDS011;35715;51.570;6.036;2024-01-11T08:12:25;26.70;;;16.63;;
49826;SDS011;35715;51.570;6.036;2024-01-11T08:14:50;22.40;;;14.98;;
49826;SDS011;35715;51.570;6.036;2024-01-11T08:17:21;29.40;;;14.07;;
49826;SDS011;35715;51.570;6.036;2024-01-11T08:19:46;27.85;;;14.00;;
49826;SDS011;35715;51.570;6.036;2024-01-11T08:22:11;25.00;;;14.25;;
49826;SDS011;35715;51.570;6.036;2024-01-11T08:24:37;23.45;;;14.80;;
49826;SDS011;35715;51.570;6.036;2024-01-11T08:27:03;22.00;;;14.55;;
49826;SDS011;35715;51.570;6.036;2024-01-11T08:29:29;22.75;;;13.77;;
49826;SDS011;35715;51.570;6.036;2024-01-11T08:31:55;22.95;;;12.75;;
49826;SDS011;35715;51.570;6.036;2024-01-11T08:34:21;26.23;;;15.25;;
49826;SDS011;35715;51.570;6.036;2024-01-11T08:36:46;24.23;;;15.18;;
49826;SDS011;35715;51.570;6.036;2024-01-11T08:39:12;27.17;;;18.08;;
49826;SDS011;35715;51.570;6.036;2024-01-11T08:41:39;25.58;;;15.07;;
49826;SDS011;35715;51.570;6.036;2024-01-11T08:44:04;22.17;;;14.30;;
49826;SDS011;35715;51.570;6.036;2024-01-11T08:46:32;21.20;;;13.50;;
49826;SDS011;35715;51.570;6.036;2024-01-11T08:48:59;26.42;;;15.38;;
49826;SDS011;35715;51.570;6.036;2024-01-11T08:51:26;21.00;;;13.57;;
49826;SDS011;35715;51.570;6.036;2024-01-11T08:53:52;31.42;;;15.82;;
49826;SDS011;35715;51.570;6.036;2024-01-11T08:56:23;28.52;;;16.10;;
49826;SDS011;35715;51.570;6.036;2024-01-11T08:58:49;26.35;;;16.15;;
49826;SDS011;35715;51.570;6.036;2024-01-11T09:01:14;29.08;;;15.48;;
49826;SDS011;35715;51.570;6.036;2024-01-11T09:03:43;26.98;;;16.15;;
49826;SDS011;35715;51.570;6.036;2024-01-11T09:06:09;21.85;;;13.40;;
49826;SDS011;35715;51.570;6.036;2024-01-11T09:08:35;26.58;;;16.23;;
49826;SDS011;35715;51.570;6.036;2024-01-11T09:11:00;24.88;;;15.02;;
49826;SDS011;35715;51.570;6.036;2024-01-11T09:13:26;28.65;;;17.35;;
49826;SDS011;35715;51.570;6.036;2024-01-11T09:15:52;25.98;;;15.65;;
49826;SDS011;35715;51.570;6.036;2024-01-11T09:18:21;29.35;;;14.95;;
49826;SDS011;35715;51.570;6.036;2024-01-11T09:20:46;25.33;;;16.17;;
49826;SDS011;35715;51.570;6.036;2024-01-11T09:23:15;27.48;;;16.48;;
49826;SDS011;35715;51.570;6.036;2024-01-11T09:25:41;26.35;;;15.45;;
49826;SDS011;35715;51.570;6.036;2024-01-11T09:28:09;27.30;;;15.88;;
49826;SDS011;35715;51.570;6.036;2024-01-11T09:30:34;24.77;;;16.65;;
49826;SDS011;35715;51.570;6.036;2024-01-11T09:33:00;29.27;;;15.70;;
49826;SDS011;35715;51.570;6.036;2024-01-11T09:35:26;23.70;;;14.43;;
49826;SDS011;35715;51.570;6.036;2024-01-11T09:37:51;26.17;;;15.23;;
49826;SDS011;35715;51.570;6.036;2024-01-11T09:40:18;25.75;;;15.35;;
49826;SDS011;35715;51.570;6.036;2024-01-11T09:42:44;29.55;;;15.75;;
49826;SDS011;35715;51.570;6.036;2024-01-11T09:45:28;32.92;;;18.73;;
49826;SDS011;35715;51.570;6.036;2024-01-11T09:48:04;30.42;;;17.30;;
49826;SDS011;35715;51.570;6.036;2024-01-11T09:50:34;28.98;;;16.45;;
49826;SDS011;35715;51.570;6.036;2024-01-11T09:53:01;26.05;;;15.85;;
49826;SDS011;35715;51.570;6.036;2024-01-11T09:55:34;24.30;;;15.15;;
49826;SDS011;35715;51.570;6.036;2024-01-11T10:00:29;24.13;;;15.05;;
49826;SDS011;35715;51.570;6.036;2024-01-11T10:02:55;27.45;;;16.48;;
49826;SDS011;35715;51.570;6.036;2024-01-11T10:05:21;29.35;;;18.20;;
49826;SDS011;35715;51.570;6.036;2024-01-11T10:07:47;26.77;;;17.38;;
49826;SDS011;35715;51.570;6.036;2024-01-11T10:10:12;28.58;;;17.55;;
49826;SDS011;35715;51.570;6.036;2024-01-11T10:12:40;29.42;;;16.30;;
49826;SDS011;35715;51.570;6.036;2024-01-11T10:15:09;29.08;;;17.88;;
49826;SDS011;35715;51.570;6.036;2024-01-11T10:17:36;32.63;;;18.60;;
49826;SDS011;35715;51.570;6.036;2024-01-11T10:20:05;29.80;;;17.15;;
49826;SDS011;35715;51.570;6.036;2024-01-11T10:22:31;28.25;;;17.05;;
49826;SDS011;35715;51.570;6.036;2024-01-11T10:25:07;28.75;;;17.88;;
49826;SDS011;35715;51.570;6.036;2024-01-11T10:27:38;31.27;;;18.95;;
49826;SDS011;35715;51.570;6.036;2024-01-11T10:30:05;26.45;;;18.33;;
49826;SDS011;35715;51.570;6.036;2024-01-11T10:32:32;28.58;;;19.90;;
49826;SDS011;35715;51.570;6.036;2024-01-11T10:34:59;29.98;;;19.92;;
49826;SDS011;35715;51.570;6.036;2024-01-11T10:37:26;21.83;;;18.02;;
49826;SDS011;35715;51.570;6.036;2024-01-11T10:39:53;31.70;;;19.23;;
49826;SDS011;35715;51.570;6.036;2024-01-11T10:42:23;31.45;;;20.25;;
49826;SDS011;35715;51.570;6.036;2024-01-11T10:44:52;24.92;;;19.00;;
49826;SDS011;35715;51.570;6.036;2024-01-11T10:47:23;24.73;;;19.77;;
49826;SDS011;35715;51.570;6.036;2024-01-11T10:49:55;22.25;;;16.95;;
49826;SDS011;35715;51.570;6.036;2024-01-11T10:52:22;22.13;;;17.17;;
49826;SDS011;35715;51.570;6.036;2024-01-11T10:54:55;26.35;;;19.95;;
49826;SDS011;35715;51.570;6.036;2024-01-11T10:57:22;28.55;;;20.50;;
49826;SDS011;35715;51.570;6.036;2024-01-11T10:59:51;27.42;;;20.55;;
49826;SDS011;35715;51.570;6.036;2024-01-11T11:04:44;24.67;;;18.33;;
49826;SDS011;35715;51.570;6.036;2024-01-11T11:07:11;25.70;;;17.67;;
49826;SDS011;35715;51.570;6.036;2024-01-11T11:09:40;22.52;;;18.05;;
49826;SDS011;35715;51.570;6.036;2024-01-11T11:12:09;23.92;;;20.00;;
49826;SDS011;35715;51.570;6.036;2024-01-11T11:14:35;25.70;;;19.55;;
49826;SDS011;35715;51.570;6.036;2024-01-11T11:17:01;26.67;;;21.77;;
49826;SDS011;35715;51.570;6.036;2024-01-11T11:19:27;32.78;;;22.77;;
49826;SDS011;35715;51.570;6.036;2024-01-11T11:21:53;25.50;;;18.85;;
49826;SDS011;35715;51.570;6.036;2024-01-11T11:24:19;26.83;;;20.45;;
49826;SDS011;35715;51.570;6.036;2024-01-11T11:26:45;27.60;;;21.05;;
49826;SDS011;35715;51.570;6.036;2024-01-11T11:29:10;28.30;;;22.95;;
49826;SDS011;35715;51.570;6.036;2024-01-11T11:31:36;30.02;;;20.88;;
49826;SDS011;35715;51.570;6.036;2024-01-11T11:34:06;29.75;;;23.02;;
49826;SDS011;35715;51.570;6.036;2024-01-11T11:36:32;28.70;;;22.50;;
49826;SDS011;35715;51.570;6.036;2024-01-11T11:38:59;26.88;;;19.80;;
49826;SDS011;35715;51.570;6.036;2024-01-11T11:41:30;29.38;;;20.50;;
49826;SDS011;35715;51.570;6.036;2024-01-11T11:44:01;27.50;;;22.60;;
49826;SDS011;35715;51.570;6.036;2024-01-11T11:46:28;25.25;;;22.52;;
49826;SDS011;35715;51.570;6.036;2024-01-11T11:48:54;27.42;;;21.33;;
49826;SDS011;35715;51.570;6.036;2024-01-11T11:51:20;26.98;;;22.15;;
49826;SDS011;35715;51.570;6.036;2024-01-11T11:53:47;27.98;;;22.88;;
49826;SDS011;35715;51.570;6.036;2024-01-11T11:56:15;25.83;;;20.60;;
49826;SDS011;35715;51.570;6.036;2024-01-11T11:58:42;29.50;;;21.88;;
49826;SDS011;35715;51.570;6.036;2024-01-11T12:01:09;26.45;;;22.02;;
49826;SDS011;35715;51.570;6.036;2024-01-11T12:06:00;26.98;;;20.52;;
49826;SDS011;35715;51.570;6.036;2024-01-11T12:08:25;25.48;;;20.90;;
49826;SDS011;35715;51.570;6.036;2024-01-11T12:10:54;27.70;;;22.75;;
49826;SDS011;35715;51.570;6.036;2024-01-11T12:13:19;27.88;;;20.55;;
49826;SDS011;35715;51.570;6.036;2024-01-11T12:15:45;23.95;;;19.20;;
49826;SDS011;35715;51.570;6.036;2024-01-11T12:18:11;25.88;;;19.33;;
49826;SDS011;35715;51.570;6.036;2024-01-11T12:20:37;24.00;;;19.38;;
49826;SDS011;35715;51.570;6.036;2024-01-11T12:23:03;22.27;;;19.27;;
49826;SDS011;35715;51.570;6.036;2024-01-11T12:25:32;28.58;;;21.13;;
49826;SDS011;35715;51.570;6.036;2024-01-11T12:27:58;23.13;;;17.88;;
49826;SDS011;35715;51.570;6.036;2024-01-11T12:30:24;24.90;;;17.42;;
49826;SDS011;35715;51.570;6.036;2024-01-11T12:32:51;22.27;;;17.35;;
49826;SDS011;35715;51.570;6.036;2024-01-11T12:35:20;25.48;;;19.95;;
49826;SDS011;35715;51.570;6.036;2024-01-11T12:37:55;26.52;;;20.52;;
49826;SDS011;35715;51.570;6.036;2024-01-11T12:40:23;22.95;;;17.92;;
49826;SDS011;35715;51.570;6.036;2024-01-11T12:42:52;27.27;;;19.65;;
49826;SDS011;35715;51.570;6.036;2024-01-11T12:45:21;27.77;;;20.95;;
49826;SDS011;35715;51.570;6.036;2024-01-11T12:47:46;24.25;;;19.75;;
49826;SDS011;35715;51.570;6.036;2024-01-11T12:50:12;31.15;;;23.00;;
49826;SDS011;35715;51.570;6.036;2024-01-11T12:52:38;25.77;;;20.63;;
49826;SDS011;35715;51.570;6.036;2024-01-11T12:55:03;26.25;;;21.75;;
49826;SDS011;35715;51.570;6.036;2024-01-11T12:57:30;24.50;;;21.08;;
49826;SDS011;35715;51.570;6.036;2024-01-11T13:00:10;23.45;;;19.35;;
49826;SDS011;35715;51.570;6.036;2024-01-11T13:02:38;26.23;;;19.08;;
49826;SDS011;35715;51.570;6.036;2024-01-11T13:05:04;27.80;;;18.60;;
49826;SDS011;35715;51.570;6.036;2024-01-11T13:07:30;22.63;;;17.73;;
49826;SDS011;35715;51.570;6.036;2024-01-11T13:09:56;21.05;;;17.23;;
49826;SDS011;35715;51.570;6.036;2024-01-11T13:12:21;25.30;;;19.15;;
49826;SDS011;35715;51.570;6.036;2024-01-11T13:14:47;24.95;;;20.63;;
49826;SDS011;35715;51.570;6.036;2024-01-11T13:17:13;27.30;;;21.08;;
49826;SDS011;35715;51.570;6.036;2024-01-11T13:19:39;25.40;;;18.65;;
49826;SDS011;35715;51.570;6.036;2024-01-11T13:22:07;21.77;;;17.90;;
49826;SDS011;35715;51.570;6.036;2024-01-11T13:24:32;25.48;;;18.65;;
49826;SDS011;35715;51.570;6.036;2024-01-11T13:26:58;24.38;;;17.45;;
49826;SDS011;35715;51.570;6.036;2024-01-11T13:29:23;24.77;;;18.52;;
49826;SDS011;35715;51.570;6.036;2024-01-11T13:31:49;27.20;;;20.27;;
49826;SDS011;35715;51.570;6.036;2024-01-11T13:34:15;21.58;;;16.92;;
49826;SDS011;35715;51.570;6.036;2024-01-11T13:36:40;24.08;;;19.30;;
49826;SDS011;35715;51.570;6.036;2024-01-11T13:39:05;17.50;;;14.93;;
49826;SDS011;35715;51.570;6.036;2024-01-11T13:41:33;21.15;;;14.43;;
49826;SDS011;35715;51.570;6.036;2024-01-11T13:43:59;17.08;;;12.35;;
49826;SDS011;35715;51.570;6.036;2024-01-11T13:46:25;17.40;;;12.23;;
49826;SDS011;35715;51.570;6.036;2024-01-11T13:48:50;14.63;;;9.85;;
49826;SDS011;35715;51.570;6.036;2024-01-11T13:51:15;11.45;;;6.97;;
49826;SDS011;35715;51.570;6.036;2024-01-11T13:53:41;10.27;;;7.13;;
49826;SDS011;35715;51.570;6.036;2024-01-11T13:56:06;12.55;;;7.05;;
49826;SDS011;35715;51.570;6.036;2024-01-11T13:58:32;11.57;;;7.00;;
49826;SDS011;35715;51.570;6.036;2024-01-11T14:03:54;10.45;;;8.07;;
49826;SDS011;35715;51.570;6.036;2024-01-11T14:06:20;12.63;;;8.10;;
49826;SDS011;35715;51.570;6.036;2024-01-11T14:08:46;13.52;;;7.90;;
49826;SDS011;35715;51.570;6.036;2024-01-11T14:11:14;10.32;;;6.57;;
49826;SDS011;35715;51.570;6.036;2024-01-11T14:13:39;11.85;;;7.90;;
49826;SDS011;35715;51.570;6.036;2024-01-11T14:16:08;9.88;;;6.28;;
49826;SDS011;35715;51.570;6.036;2024-01-11T14:18:33;13.38;;;9.48;;
49826;SDS011;35715;51.570;6.036;2024-01-11T14:20:58;11.02;;;7.15;;
49826;SDS011;35715;51.570;6.036;2024-01-11T14:23:25;10.15;;;7.88;;
49826;SDS011;35715;51.570;6.036;2024-01-11T14:25:50;12.70;;;7.47;;
49826;SDS011;35715;51.570;6.036;2024-01-11T14:28:16;12.50;;;7.72;;
49826;SDS011;35715;51.570;6.036;2024-01-11T14:30:42;11.98;;;8.13;;
49826;SDS011;35715;51.570;6.036;2024-01-11T14:33:07;11.35;;;6.72;;